Time;durP1;ratioP1;P1;durP2;ratioP2;P2;SDS_P1;SDS_P2;PMS_P1;PMS_P2;Temp;Humidity;BMP_temperature;BMP_pressure;BME280_temperature;BME280_humidity;BME280_pressure;Samples;Min_cycle;Max_cycle;Signal;HPM_P1;HPM_P2
2022/12/18 00:02:49;;;;;;;12.55;7.22;;;;;;;21.46;46.41;95646.22;5050301;28;20070;-59
2022/12/18 00:11:34;;;;;;;11.45;6.38;;;;;;;21.24;46.22;95630.91;5065723;28;20106;-61
2022/12/18 00:14:47;;;;;;;10.65;6.35;;;;;;;21.45;46.31;95654.81;5041089;28;20191;-60
2022/12/18 00:17:28;;;;;;;12.95;7.00;;;;;;;21.39;46.41;95664.13;5017019;28;20059;-59
2022/12/18 00:20:20;;;;;;;10.75;6.50;;;;;;;21.38;46.40;95649.81;5054880;28;20040;-59
2022/12/18 00:29:28;;;;;;;11.90;6.57;;;;;;;21.22;46.32;95669.41;5047190;28;20052;-59
2022/12/18 00:31:54;;;;;;;10.88;6.18;;;;;;;21.16;46.27;95638.72;5047186;28;20420;-59
2022/12/18 00:34:19;;;;;;;10.50;5.75;;;;;;;20.53;46.20;95559.56;5045586;28;20032;-58
2022/12/18 00:36:47;;;;;;;11.27;6.15;;;;;;;21.33;46.44;95677.69;5042435;28;20442;-59
2022/12/18 00:39:15;;;;;;;11.38;6.47;;;;;;;21.34;46.35;95690.00;5034322;28;20040;-60
2022/12/18 00:47:50;;;;;;;9.90;5.97;;;;;;;19.47;46.25;95400.09;5043118;28;20175;-60
2022/12/18 00:50:19;;;;;;;9.13;5.43;;;;;;;21.37;46.38;95691.78;5054334;28;20150;-60
2022/12/18 00:52:44;;;;;;;9.63;5.90;;;;;;;20.75;46.31;95597.84;5060761;28;20111;-61
2022/12/18 00:55:10;;;;;;;10.30;6.22;;;;;;;21.34;46.81;95706.31;5066343;28;20032;-60
2022/12/18 00:57:36;;;;;;;9.82;6.43;;;;;;;21.33;46.44;95702.13;5065547;28;20424;-59
2022/12/18 01:00:02;;;;;;;10.20;6.18;;;;;;;21.36;46.43;95694.97;5046829;28;20071;-59
2022/12/18 01:02:27;;;;;;;8.55;5.90;;;;;;;21.17;46.00;95670.09;5065566;28;20531;-60
2022/12/18 01:04:52;;;;;;;9.93;5.63;;;;;;;21.35;46.46;95694.22;5065565;28;20038;-59
2022/12/18 01:07:18;;;;;;;9.10;5.35;;;;;;;21.34;46.25;95703.59;5066694;28;20114;-59
2022/12/18 01:09:43;;;;;;;9.70;6.00;;;;;;;21.34;46.38;95706.31;5064951;28;20106;-59
2022/12/18 01:12:09;;;;;;;8.20;5.07;;;;;;;21.32;46.49;95713.47;5047796;28;20049;-60
2022/12/18 01:14:34;;;;;;;9.13;5.50;;;;;;;21.30;46.42;95719.38;5065130;28;20048;-59
2022/12/18 01:17:02;;;;;;;7.80;5.18;;;;;;;21.28;46.33;95713.66;5044513;28;20033;-60
2022/12/18 01:19:27;;;;;;;7.88;5.50;;;;;;;21.19;46.47;95702.94;5043323;28;20102;-60
2022/12/18 01:21:53;;;;;;;8.80;5.10;;;;;;;21.33;46.56;95740.16;5064431;28;20428;-61
2022/12/18 01:24:18;;;;;;;8.45;4.93;;;;;;;21.31;46.34;95736.41;5051426;28;20053;-60
2022/12/18 01:26:44;;;;;;;9.10;5.20;;;;;;;21.31;46.28;95726.28;5048220;28;20040;-60
2022/12/18 01:29:09;;;;;;;8.55;5.60;;;;;;;21.30;46.42;95724.81;5059853;28;20041;-59
2022/12/18 01:31:34;;;;;;;8.10;5.07;;;;;;;21.31;46.57;95734.44;5045245;28;20155;-60
2022/12/18 01:34:00;;;;;;;8.98;5.13;;;;;;;21.23;46.54;95719.78;5065559;28;20033;-59
2022/12/18 01:36:27;;;;;;;8.77;4.60;;;;;;;21.21;46.35;95727.69;5043940;28;20087;-60
2022/12/18 01:38:53;;;;;;;9.35;4.90;;;;;;;21.29;46.42;95739.63;5044645;28;20472;-59
2022/12/18 01:41:21;;;;;;;8.60;5.03;;;;;;;21.24;46.29;95734.09;5049944;28;20045;-60
2022/12/18 01:43:56;;;;;;;10.23;5.40;;;;;;;19.25;46.31;95437.75;5045014;28;20035;-59
2022/12/18 01:46:25;;;;;;;7.60;4.95;;;;;;;21.19;46.34;95730.09;5034482;28;20037;-59
2022/12/18 01:48:52;;;;;;;7.65;5.07;;;;;;;;;;5044371;28;20508;-60
2022/12/18 01:51:17;;;;;;;8.40;4.95;;;;;;;21.29;46.38;95738.88;5059800;28;20052;-59
2022/12/18 01:53:44;;;;;;;7.10;4.75;;;;;;;21.03;46.38;95722.53;5064792;28;20052;-60
2022/12/18 01:56:18;;;;;;;6.43;4.43;;;;;;;21.25;46.47;95739.06;5043776;28;20489;-59
2022/12/18 01:59:03;;;;;;;7.18;4.28;;;;;;;21.25;46.38;95744.50;5043413;28;20060;-59
2022/12/18 02:01:29;;;;;;;9.00;5.05;;;;;;;21.10;46.48;95727.53;5011050;28;20044;-59
2022/12/18 02:03:54;;;;;;;7.55;4.72;;;;;;;21.04;46.41;95707.72;5044670;28;20045;-60
2022/12/18 02:06:33;;;;;;;6.75;4.55;;;;;;;21.26;46.46;95751.44;5045095;28;20052;-59
2022/12/18 02:09:13;;;;;;;6.75;4.43;;;;;;;21.22;46.48;95745.44;5045329;28;20052;-60
2022/12/18 02:12:01;;;;;;;7.57;4.88;;;;;;;21.20;46.54;95742.47;5036987;28;20491;-60
2022/12/18 02:14:33;;;;;;;6.75;4.43;;;;;;;21.20;46.56;95747.91;5043353;28;20090;-59
2022/12/18 02:17:18;;;;;;;6.57;4.53;;;;;;;20.59;46.42;95661.50;5046125;28;20048;-59
2022/12/18 02:20:08;;;;;;;7.30;4.38;;;;;;;21.22;46.32;95756.31;5061645;28;20039;-58
2022/12/18 02:22:49;;;;;;;7.40;4.53;;;;;;;21.23;46.36;95765.97;5046608;28;20418;-59
2022/12/18 02:25:23;;;;;;;6.63;4.13;;;;;;;21.20;46.43;95764.19;5049000;28;20186;-59
2022/12/18 02:27:49;;;;;;;7.40;4.65;;;;;;;21.20;46.35;95758.78;5047843;28;20540;-59
2022/12/18 02:30:14;;;;;;;7.18;4.47;;;;;;;20.96;46.28;95736.50;5047180;28;20056;-59
2022/12/18 02:32:42;;;;;;;7.35;4.32;;;;;;;21.19;46.42;95757.25;5033899;28;20106;-60
2022/12/18 02:35:12;;;;;;;7.63;4.53;;;;;;;20.22;46.32;95615.66;5029811;28;20228;-59
2022/12/18 02:37:38;;;;;;;6.00;4.22;;;;;;;21.23;46.38;95784.25;5034614;28;20032;-59
2022/12/18 02:40:04;;;;;;;6.63;4.13;;;;;;;20.55;46.25;95671.06;5027450;28;20394;-59
2022/12/18 02:42:29;;;;;;;6.57;4.15;;;;;;;21.02;46.51;95748.19;5049451;28;20052;-59
2022/12/18 02:44:55;;;;;;;6.82;4.60;;;;;;;20.93;46.39;95722.41;5048272;28;20049;-59
2022/12/18 02:47:22;;;;;;;5.82;4.22;;;;;;;21.04;46.42;95743.03;5041895;28;20109;-59
2022/12/18 02:50:05;;;;;;;6.10;4.15;;;;;;;21.20;46.25;95775.06;5047802;28;20067;-59
2022/12/18 02:52:35;;;;;;;5.88;4.05;;;;;;;21.16;46.52;95769.09;5047941;28;20040;-58
2022/12/18 02:55:38;;;;;;;6.47;4.47;;;;;;;21.14;46.38;95774.25;5046826;28;20048;-59
2022/12/18 02:58:26;;;;;;;6.03;3.75;;;;;;;21.11;46.47;95766.31;5067819;28;20131;-58
2022/12/18 03:00:53;;;;;;;6.13;3.70;;;;;;;21.17;46.44;95765.16;5030892;28;20073;-60
2022/12/18 03:03:38;;;;;;;5.28;3.63;;;;;;;21.17;46.35;95776.03;5042899;28;20411;-59
2022/12/18 03:06:06;;;;;;;5.85;3.80;;;;;;;21.17;46.51;95797.00;5053762;28;20044;-59
2022/12/18 03:08:35;;;;;;;7.00;4.32;;;;;;;21.02;46.38;95769.16;5067208;28;20098;-59
2022/12/18 03:11:03;;;;;;;7.27;4.00;;;;;;;21.14;46.42;95793.25;5029908;28;20049;-59
2022/12/18 03:13:50;;;;;;;5.53;3.60;;;;;;;21.13;46.44;95780.91;5048553;28;20104;-60
2022/12/18 03:16:20;;;;;;;6.03;3.80;;;;;;;20.54;46.37;95702.88;5032577;28;20552;-59
2022/12/18 03:18:51;;;;;;;6.63;4.03;;;;;;;21.03;46.36;95774.13;5025034;28;20149;-59
2022/12/18 03:21:18;;;;;;;5.95;3.50;;;;;;;21.13;46.14;95797.19;5018964;28;20038;-59
2022/12/18 03:23:46;;;;;;;5.28;3.60;;;;;;;21.03;46.36;95782.28;5026621;28;20687;-59
2022/12/18 03:26:13;;;;;;;4.70;3.70;;;;;;;20.38;46.52;95689.09;4994185;28;20482;-59
2022/12/18 03:29:04;;;;;;;5.90;3.63;;;;;;;20.99;46.33;95781.72;5026073;28;20025;-59
2022/12/18 03:31:29;;;;;;;6.32;3.72;;;;;;;20.98;46.42;95780.25;5015980;28;20448;-58
2022/12/18 03:33:56;;;;;;;5.65;3.72;;;;;;;21.10;46.28;95809.00;5027755;28;20046;-60
2022/12/18 03:36:22;;;;;;;5.55;3.67;;;;;;;21.09;46.33;95802.09;5026323;28;20045;-60
2022/12/18 03:38:47;;;;;;;4.93;3.55;;;;;;;20.85;46.62;95791.88;5000088;28;20053;-59
2022/12/18 03:41:18;;;;;;;5.57;3.63;;;;;;;20.34;46.19;95704.81;5008250;28;20045;-59
2022/12/18 03:43:51;;;;;;;4.88;3.70;;;;;;;20.32;46.22;95698.38;5022455;28;20234;-59
2022/12/18 03:46:31;;;;;;;5.72;3.67;;;;;;;21.10;46.41;95832.72;5028312;28;20060;-59
2022/12/18 03:49:23;;;;;;;4.90;3.40;;;;;;;20.82;46.34;95798.25;5023851;28;20057;-59
2022/12/18 03:51:52;;;;;;;5.18;3.38;;;;;;;20.96;46.13;95825.38;5012594;28;20080;-63
2022/12/18 03:54:18;;;;;;;6.03;3.83;;;;;;;21.07;46.42;95837.09;5023847;28;20040;-59
2022/12/18 03:56:54;;;;;;;5.00;3.22;;;;;;;19.82;46.20;95647.34;5029341;28;20120;-59
2022/12/18 03:59:19;;;;;;;5.70;3.70;;;;;;;21.08;46.34;95844.03;5028747;28;20079;-60
2022/12/18 04:01:48;;;;;;;4.68;3.35;;;;;;;21.03;46.60;95836.56;5028284;28;20445;-60
2022/12/18 04:04:14;;;;;;;6.13;3.47;;;;;;;21.04;46.29;95859.78;5029760;28;20036;-60
2022/12/18 04:06:40;;;;;;;4.68;3.30;;;;;;;21.00;46.51;95864.69;5046183;28;20095;-60
2022/12/18 04:09:06;;;;;;;4.90;3.40;;;;;;;21.05;46.42;95849.69;5026449;28;20088;-60
2022/12/18 04:11:31;;;;;;;5.47;3.55;;;;;;;21.04;46.53;95854.34;5028571;28;20077;-60
2022/12/18 04:13:57;;;;;;;4.65;3.72;;;;;;;20.99;46.27;95846.16;5028992;28;20056;-60
2022/12/18 04:16:25;;;;;;;4.72;3.17;;;;;;;21.03;46.39;95885.44;5061868;28;20067;-59
2022/12/18 04:18:52;;;;;;;4.60;3.33;;;;;;;20.17;46.33;95743.78;5064865;28;20061;-60
2022/12/18 04:21:17;;;;;;;4.65;3.20;;;;;;;19.66;46.23;95661.41;5026446;28;20037;-60
2022/12/18 04:23:42;;;;;;;5.22;3.20;;;;;;;21.03;46.56;95874.59;5055893;28;20041;-59
2022/12/18 04:26:08;;;;;;;4.47;3.17;;;;;;;20.84;46.39;95839.28;5042035;28;20056;-60
2022/12/18 04:28:34;;;;;;;5.07;3.38;;;;;;;21.09;46.27;95883.56;5044879;28;20752;-60
2022/12/18 04:30:59;;;;;;;5.57;3.05;;;;;;;20.93;46.37;95841.88;5065206;28;20056;-59
2022/12/18 04:33:25;;;;;;;4.25;2.85;;;;;;;21.14;46.19;95885.59;5049741;28;20041;-59
2022/12/18 04:35:50;;;;;;;5.90;3.58;;;;;;;19.88;45.53;95662.50;5044540;28;20044;-59
2022/12/18 04:38:16;;;;;;;4.82;2.85;;;;;;;21.45;45.64;95880.34;5050466;28;20453;-59
2022/12/18 04:40:41;;;;;;;4.70;3.15;;;;;;;21.69;45.31;95902.66;5063835;28;20501;-60
2022/12/18 04:43:06;;;;;;;5.47;3.25;;;;;;;21.74;45.01;95899.25;5065816;28;20154;-59
2022/12/18 04:45:32;;;;;;;4.35;3.13;;;;;;;21.81;44.84;95907.75;5030499;28;20102;-59
2022/12/18 04:47:58;;;;;;;4.60;2.80;;;;;;;21.32;44.62;95820.16;5044878;28;20045;-60
2022/12/18 04:50:24;;;;;;;4.78;2.90;;;;;;;21.48;44.85;95849.53;5052028;28;20044;-59
2022/12/18 04:52:49;;;;;;;4.25;3.20;;;;;;;21.92;44.54;95900.44;5065460;28;20573;-60
2022/12/18 04:55:15;;;;;;;5.28;3.10;;;;;;;21.76;44.54;95888.63;5048734;28;20040;-59
2022/12/18 04:57:40;;;;;;;4.05;2.75;;;;;;;21.84;44.56;95897.84;5065640;28;20119;-59
2022/12/18 05:00:06;;;;;;;4.35;3.00;;;;;;;21.26;44.44;95821.31;5065189;28;20126;-59
2022/12/18 05:02:32;;;;;;;4.00;2.85;;;;;;;22.04;44.43;95945.56;5065730;28;20052;-59
2022/12/18 05:04:57;;;;;;;3.75;2.80;;;;;;;22.13;44.25;95937.25;5032241;28;20102;-60
2022/12/18 05:07:22;;;;;;;4.15;3.05;;;;;;;22.22;43.97;95937.13;5065979;28;20043;-60
2022/12/18 05:09:48;;;;;;;4.13;2.78;;;;;;;22.45;43.77;95941.56;5065554;28;20048;-60
2022/12/18 05:12:13;;;;;;;4.07;2.85;;;;;;;22.36;43.72;95933.59;5051588;28;20421;-60
2022/12/18 05:14:39;;;;;;;3.92;2.63;;;;;;;22.28;44.05;95932.50;5053891;28;20488;-60
2022/12/18 05:17:04;;;;;;;4.50;3.10;;;;;;;22.09;43.98;95925.84;5044333;28;20530;-60
2022/12/18 05:19:30;;;;;;;3.47;2.55;;;;;;;21.91;43.82;95892.03;5062728;28;20496;-60
2022/12/18 05:21:55;;;;;;;3.13;2.58;;;;;;;22.06;43.93;95894.19;5046085;28;20048;-60
2022/12/18 05:24:20;;;;;;;3.40;2.53;;;;;;;22.33;43.54;95944.66;5064064;28;20167;-60
2022/12/18 05:26:46;;;;;;;3.78;2.60;;;;;;;22.40;42.84;95934.09;5062783;28;20045;-60
2022/12/18 05:29:12;;;;;;;3.35;2.60;;;;;;;22.78;42.94;95958.22;5064149;28;20052;-60
2022/12/18 05:31:38;;;;;;;3.67;2.40;;;;;;;22.88;42.97;95963.00;5065185;28;20039;-60
2022/12/18 05:34:03;;;;;;;4.63;2.72;;;;;;;22.73;42.97;95969.81;5065746;28;20518;-59
2022/12/18 05:36:29;;;;;;;3.40;2.53;;;;;;;22.82;42.62;95975.09;5056756;28;20122;-59
2022/12/18 05:38:54;;;;;;;3.67;2.65;;;;;;;22.95;42.76;95985.13;5065241;28;20048;-60
2022/12/18 05:41:20;;;;;;;5.20;2.80;;;;;;;22.98;42.32;95967.81;5062203;28;20469;-60
2022/12/18 05:43:45;;;;;;;3.38;2.60;;;;;;;23.05;42.44;95970.13;5061708;28;20040;-60
2022/12/18 05:46:15;;;;;;;3.78;2.50;;;;;;;22.42;42.63;95915.34;5065688;28;20405;-60
2022/12/18 05:48:41;;;;;;;4.53;2.47;;;;;;;22.68;42.13;95910.63;5046691;28;20044;-60
2022/12/18 05:51:08;;;;;;;3.95;2.60;;;;;;;23.21;41.90;95980.38;5048437;28;20036;-60
2022/12/18 05:53:34;;;;;;;3.38;2.40;;;;;;;22.95;42.82;95985.13;5047381;28;20286;-60
2022/12/18 05:56:01;;;;;;;3.53;2.47;;;;;;;23.06;42.64;95995.38;5063883;28;20535;-59
2022/12/18 05:58:26;;;;;;;3.60;2.75;;;;;;;22.87;42.69;95982.56;5049707;28;20067;-59
2022/12/18 06:00:52;;;;;;;3.90;2.60;;;;;;;23.15;42.19;95987.03;5045996;28;20036;-59
2022/12/18 06:03:17;;;;;;;2.90;2.53;;;;;;;23.09;41.61;95940.69;5044735;28;20462;-59
2022/12/18 06:05:44;;;;;;;3.42;2.40;;;;;;;23.29;42.02;96005.22;5010134;28;20049;-60
2022/12/18 06:08:10;;;;;;;3.30;2.47;;;;;;;23.29;41.94;96014.16;5043531;28;20045;-59
2022/12/18 06:10:35;;;;;;;3.45;2.58;;;;;;;22.96;41.62;95921.25;5027857;28;20523;-60
2022/12/18 06:13:01;;;;;;;3.92;2.85;;;;;;;23.26;41.87;96009.66;5048051;28;20040;-60
2022/12/18 06:15:26;;;;;;;3.55;2.38;;;;;;;23.05;42.24;95983.00;5063188;28;20048;-59
2022/12/18 06:17:52;;;;;;;3.90;2.60;;;;;;;23.04;42.05;95976.06;5053406;28;20103;-59
2022/12/18 06:20:17;;;;;;;3.60;2.47;;;;;;;23.12;41.98;96002.38;5044513;28;20060;-60
2022/12/18 06:22:43;;;;;;;3.65;2.50;;;;;;;23.38;41.62;96011.25;5044236;28;20029;-59
2022/12/18 06:25:08;;;;;;;3.60;2.42;;;;;;;23.64;41.51;96022.84;5044044;28;20033;-60
2022/12/18 06:27:34;;;;;;;3.40;2.38;;;;;;;23.79;40.95;96009.78;5043956;28;20055;-59
2022/12/18 06:30:00;;;;;;;3.63;2.38;;;;;;;24.02;40.27;96037.44;5044671;28;20041;-60
2022/12/18 06:32:25;;;;;;;4.55;2.20;;;;;;;23.98;40.98;96020.56;5076697;28;20147;-58
2022/12/18 06:34:51;;;;;;;3.63;2.58;;;;;;;24.09;40.94;96031.50;5042852;28;20131;-60
2022/12/18 06:37:16;;;;;;;3.40;2.67;;;;;;;24.29;40.04;96027.88;5043069;28;20501;-60
2022/12/18 06:39:42;;;;;;;3.80;2.80;;;;;;;24.19;40.35;96023.88;5043619;28;20045;-60
2022/12/18 06:42:07;;;;;;;3.65;2.80;;;;;;;24.30;40.15;96035.56;5043981;28;20585;-60
2022/12/18 06:44:33;;;;;;;4.30;2.75;;;;;;;24.15;40.33;96040.47;5049783;28;20056;-60
2022/12/18 06:46:58;;;;;;;3.13;2.30;;;;;;;23.95;40.68;96021.53;5045760;28;20049;-60
2022/12/18 06:49:24;;;;;;;3.25;2.50;;;;;;;23.99;40.56;96038.44;5046049;28;20079;-63
2022/12/18 06:51:49;;;;;;;3.33;2.42;;;;;;;24.09;40.59;96058.81;5062986;28;20048;-60
2022/12/18 06:54:14;;;;;;;3.25;2.40;;;;;;;24.06;41.09;96059.03;5050007;28;20509;-60
2022/12/18 06:56:40;;;;;;;4.13;2.67;;;;;;;24.04;40.33;96056.81;5044084;28;20584;-60
2022/12/18 06:59:05;;;;;;;3.15;2.22;;;;;;;23.83;41.40;96062.16;5042785;28;20029;-60
2022/12/18 07:01:31;;;;;;;3.50;2.60;;;;;;;23.86;40.79;96067.38;5044356;28;20482;-59
2022/12/18 07:03:56;;;;;;;4.03;2.60;;;;;;;23.87;40.59;96047.78;5043472;28;20045;-59
2022/12/18 07:06:23;;;;;;;3.50;2.55;;;;;;;23.64;41.41;96071.94;5042483;28;20095;-60
2022/12/18 07:08:48;;;;;;;4.03;2.45;;;;;;;23.74;41.23;96045.97;5044443;28;20114;-60
2022/12/18 07:11:14;;;;;;;3.53;2.50;;;;;;;24.05;40.95;96041.94;5049335;28;20439;-60
2022/12/18 07:13:39;;;;;;;4.55;2.75;;;;;;;24.34;40.76;96057.97;5066071;28;20036;-60
2022/12/18 07:16:09;;;;;;;4.78;2.35;;;;;;;24.01;41.32;96074.16;5060321;28;20053;-60
2022/12/18 07:18:35;;;;;;;3.55;2.58;;;;;;;23.94;41.66;96069.13;5049367;28;20262;-60
2022/12/18 07:21:05;;;;;;;4.30;2.75;;;;;;;23.83;41.79;96068.34;5049321;28;20049;-60
2022/12/18 07:23:32;;;;;;;3.58;2.50;;;;;;;22.69;41.22;95869.28;5064415;28;20041;-60
2022/12/18 07:26:07;;;;;;;3.22;2.33;;;;;;;24.23;41.98;96090.66;5066686;28;20097;-59
2022/12/18 07:28:33;;;;;;;4.28;2.80;;;;;;;24.18;41.69;96064.06;5048111;28;20044;-59
2022/12/18 07:31:02;;;;;;;3.85;2.63;;;;;;;23.96;41.82;96023.03;5066566;28;20052;-60
2022/12/18 07:33:27;;;;;;;3.92;2.50;;;;;;;24.11;42.18;96094.56;5048504;28;20040;-60
2022/12/18 07:35:53;;;;;;;3.65;2.83;;;;;;;24.14;41.60;96077.22;5055585;28;20072;-60
2022/12/18 07:38:18;;;;;;;4.20;2.60;;;;;;;23.47;42.18;95986.53;5052893;28;20052;-61
2022/12/18 07:40:44;;;;;;;3.60;2.63;;;;;;;24.44;41.43;96105.69;5065905;28;20040;-59
2022/12/18 07:43:09;;;;;;;3.95;2.75;;;;;;;24.19;42.06;96084.66;5026040;28;20106;-60
2022/12/18 07:45:34;;;;;;;3.20;2.50;;;;;;;23.94;41.20;96014.56;5033168;28;20503;-59
2022/12/18 07:48:00;;;;;;;3.92;2.30;;;;;;;24.44;41.42;96106.41;5055188;28;20040;-60
2022/12/18 07:50:25;;;;;;;3.40;2.60;;;;;;;24.23;41.45;96063.34;5065722;28;20049;-60
2022/12/18 07:52:51;;;;;;;4.50;2.95;;;;;;;24.36;41.61;96104.63;5064982;28;20868;-60
2022/12/18 07:55:16;;;;;;;4.38;2.80;;;;;;;23.89;42.37;96099.13;5047923;28;20032;-60
2022/12/18 07:57:42;;;;;;;4.03;2.80;;;;;;;24.29;41.16;96110.53;5065219;28;20045;-60
2022/12/18 08:00:08;;;;;;;3.53;2.67;;;;;;;24.07;41.56;96102.22;5053130;28;20056;-60
2022/12/18 08:02:33;;;;;;;3.15;2.30;;;;;;;24.29;41.58;96132.38;5054090;28;20040;-60
2022/12/18 08:04:59;;;;;;;3.88;2.75;;;;;;;24.36;41.23;96121.00;5065750;28;20051;-60
2022/12/18 08:07:24;;;;;;;4.45;2.50;;;;;;;24.22;41.46;96116.44;5065610;28;20032;-60
2022/12/18 08:09:49;;;;;;;4.18;3.00;;;;;;;23.96;42.19;96117.75;5036130;28;20045;-60
2022/12/18 08:12:15;;;;;;;4.00;2.60;;;;;;;23.90;41.69;96130.63;5066011;28;20052;-60
2022/12/18 08:14:40;;;;;;;3.80;3.08;;;;;;;23.80;42.01;96134.03;5065884;28;20098;-59
2022/12/18 08:17:06;;;;;;;4.45;2.78;;;;;;;23.92;41.63;96142.56;5048234;28;20094;-60
2022/12/18 08:19:32;;;;;;;4.13;2.50;;;;;;;23.85;41.84;96131.34;5030855;28;20392;-60
2022/12/18 08:21:57;;;;;;;3.60;2.65;;;;;;;24.33;41.25;96143.81;5066320;28;20044;-60
2022/12/18 08:24:23;;;;;;;4.32;2.85;;;;;;;24.28;41.08;96155.44;5050317;28;20049;-60
2022/12/18 08:26:48;;;;;;;4.55;2.63;;;;;;;24.23;40.79;96134.34;5055184;28;20048;-62
2022/12/18 08:29:13;;;;;;;3.97;3.05;;;;;;;24.27;40.89;96145.75;5063938;28;20048;-60
2022/12/18 08:31:39;;;;;;;6.07;3.03;;;;;;;24.01;41.76;96156.00;5065113;28;20041;-59
2022/12/18 08:34:04;;;;;;;4.07;2.88;;;;;;;24.33;40.77;96146.56;5027789;28;20033;-60
2022/12/18 08:36:30;;;;;;;4.32;2.90;;;;;;;24.28;40.70;96136.34;5061512;28;20435;-61
2022/12/18 08:38:56;;;;;;;4.43;2.90;;;;;;;24.88;40.45;96164.69;5034744;28;20044;-64
2022/12/18 08:41:21;;;;;;;5.45;2.90;;;;;;;25.62;38.89;96174.09;5059905;28;20041;-61
2022/12/18 08:46:39;;;;;;;3.95;2.80;;;;;;;25.29;38.11;96086.56;5006670;28;20036;-63
2022/12/18 08:49:05;;;;;;;4.82;2.97;;;;;;;24.80;39.84;96132.13;5031928;28;20053;-61
2022/12/18 08:51:30;;;;;;;4.88;3.10;;;;;;;23.61;40.09;96023.78;5065344;28;20040;-61
2022/12/18 08:53:55;;;;;;;4.25;3.05;;;;;;;24.47;40.38;96175.69;5047394;28;20052;-61
2022/12/18 08:56:21;;;;;;;4.72;2.95;;;;;;;24.52;40.51;96177.72;5065144;28;20032;-60
2022/12/18 08:58:46;;;;;;;6.78;2.85;;;;;;;24.43;40.94;96167.72;5064577;28;20028;-61
2022/12/18 09:01:12;;;;;;;4.85;3.03;;;;;;;24.11;40.96;96165.53;5065008;28;20039;-62
2022/12/18 09:03:38;;;;;;;5.35;3.40;;;;;;;24.51;40.60;96159.81;5047093;28;20810;-60
2022/12/18 09:06:03;;;;;;;4.65;3.28;;;;;;;24.56;40.63;96157.13;5062890;28;20089;-61
2022/12/18 09:08:29;;;;;;;4.28;3.08;;;;;;;24.14;40.37;96103.75;5065183;28;20045;-61
2022/12/18 09:10:55;;;;;;;4.20;3.03;;;;;;;24.54;40.65;96169.75;5065698;28;20141;-60
2022/12/18 09:13:20;;;;;;;4.00;3.03;;;;;;;24.45;41.06;96161.78;5066428;28;20693;-62
2022/12/18 09:15:51;;;;;;;3.78;3.03;;;;;;;24.23;41.49;96172.53;5046484;28;20064;-60
2022/12/18 09:18:17;;;;;;;4.30;3.20;;;;;;;24.45;41.41;96161.78;5046734;28;20040;-60
2022/12/18 09:20:42;;;;;;;6.70;3.60;;;;;;;24.18;41.06;96137.75;5055486;28;20041;-61
2022/12/18 09:23:08;;;;;;;5.78;3.67;;;;;;;24.59;41.49;96160.88;5048590;28;20052;-61
2022/12/18 09:25:35;;;;;;;6.05;3.80;;;;;;;24.49;41.97;96170.50;5045637;28;20037;-61
2022/12/18 09:28:21;;;;;;;6.05;3.30;;;;;;;23.64;42.13;96039.22;5079235;28;20109;-61
2022/12/18 09:30:48;;;;;;;4.28;2.83;;;;;;;23.74;41.87;96054.16;5063437;28;20028;-61
2022/12/18 09:33:14;;;;;;;4.90;3.08;;;;;;;24.70;41.59;96147.25;5047083;28;20436;-61
2022/12/18 09:35:40;;;;;;;5.47;3.30;;;;;;;24.85;41.67;96171.16;5039190;28;20048;-60
2022/12/18 09:38:06;;;;;;;5.18;3.28;;;;;;;24.62;42.09;96176.25;5049686;28;20040;-61
2022/12/18 09:40:36;;;;;;;4.70;3.40;;;;;;;24.00;47.78;96099.94;5047883;28;20040;-62
2022/12/18 09:43:04;;;;;;;3.83;3.03;;;;;;;24.34;47.84;96169.91;5047141;28;20045;-61
2022/12/18 09:45:38;;;;;;;5.43;3.70;;;;;;;24.40;49.75;96165.97;5053593;28;20590;-61
2022/12/18 09:48:03;;;;;;;8.77;5.38;;;;;;;24.29;50.06;96164.38;5064766;28;20050;-61
2022/12/18 09:50:37;;;;;;;14.93;7.70;;;;;;;23.44;49.95;96042.00;5030533;28;20048;-61
2022/12/18 09:53:05;;;;;;;11.23;7.88;;;;;;;23.70;51.66;96130.72;5046105;28;20064;-61
2022/12/18 09:55:36;;;;;;;11.45;7.82;;;;;;;24.15;52.20;96171.47;5030191;28;20616;-61
2022/12/18 09:58:31;;;;;;;12.23;7.95;;;;;;;24.16;51.69;96172.97;5030419;28;20091;-61
2022/12/18 10:00:57;;;;;;;10.65;8.13;;;;;;;24.15;52.24;96155.09;5052373;28;20040;-60
2022/12/18 10:03:22;;;;;;;12.10;7.28;;;;;;;24.01;51.88;96150.56;5041632;28;20420;-61
2022/12/18 10:06:12;;;;;;;10.85;7.38;;;;;;;23.59;51.43;96058.97;5036570;28;22005;-72
2022/12/18 10:08:40;;;;;;;;;;;;;;;24.46;51.65;96168.75;5042688;28;20133;-61
2022/12/18 10:11:34;;;;;;;9.00;6.78;;;;;;;24.44;51.97;96163.03;5048195;28;19921;-61
2022/12/18 10:14:23;;;;;;;13.43;6.40;;;;;;;24.24;51.33;96141.25;5052983;28;20044;-61
2022/12/18 10:17:03;;;;;;;10.57;5.93;;;;;;;24.25;50.34;96170.06;5043375;28;20057;-60
2022/12/18 10:19:39;;;;;;;9.50;5.72;;;;;;;24.28;52.44;96174.56;5043796;28;20044;-61
2022/12/18 10:22:13;;;;;;;7.50;5.50;;;;;;;24.11;52.11;96181.13;5063921;28;20082;-61
2022/12/18 10:24:56;;;;;;;9.65;5.90;;;;;;;24.11;51.79;96170.97;5051738;28;20045;-61
2022/12/18 10:27:24;;;;;;;11.45;5.82;;;;;;;24.04;52.49;96174.16;5064007;28;20071;-61
2022/12/18 10:29:49;;;;;;;8.90;5.95;;;;;;;24.12;50.69;96177.91;5028497;28;20433;-62
2022/12/18 10:32:20;;;;;;;8.38;5.63;;;;;;;24.22;50.86;96179.22;5036475;28;20099;-60
2022/12/18 10:34:49;;;;;;;9.90;5.60;;;;;;;23.35;52.60;96064.00;5041727;28;20037;-61
2022/12/18 10:37:20;;;;;;;8.63;5.15;;;;;;;23.95;52.61;96173.59;5043188;28;20409;-61
2022/12/18 10:39:46;;;;;;;7.60;5.03;;;;;;;23.92;53.49;96169.84;5023439;28;20106;-61
2022/12/18 10:42:19;;;;;;;9.95;5.40;;;;;;;23.69;53.30;96172.13;5048642;28;20065;-61
2022/12/18 10:44:44;;;;;;;8.13;4.68;;;;;;;23.69;53.02;96172.13;5047549;28;20051;-61
2022/12/18 10:47:17;;;;;;;8.45;4.80;;;;;;;23.60;53.62;96172.25;5065839;28;20076;-61
2022/12/18 10:49:50;;;;;;;6.97;4.60;;;;;;;23.40;53.14;96161.41;5032318;28;20025;-61
2022/12/18 10:52:19;;;;;;;6.28;4.22;;;;;;;23.57;51.13;96170.50;5032804;28;20364;-63
2022/12/18 10:54:58;;;;;;;8.05;5.00;;;;;;;23.63;52.73;96174.03;5049383;28;20052;-62
2022/12/18 10:57:40;;;;;;;7.07;4.35;;;;;;;23.34;55.05;96165.34;5029708;28;20072;-62
2022/12/18 11:00:23;;;;;;;6.55;4.75;;;;;;;23.30;53.97;96168.25;5047052;28;20045;-63
2022/12/18 11:02:48;;;;;;;6.25;4.47;;;;;;;22.98;55.17;96169.41;5066962;28;20090;-63
2022/12/18 11:05:27;;;;;;;10.85;4.85;;;;;;;23.09;54.75;96163.34;5046035;28;20045;-62
2022/12/18 11:07:54;;;;;;;6.82;5.07;;;;;;;23.04;55.43;96175.66;5016320;28;20457;-62
2022/12/18 11:10:21;;;;;;;6.28;4.45;;;;;;;23.01;54.65;96173.91;5043470;28;20584;-62
2022/12/18 11:12:46;;;;;;;7.97;4.40;;;;;;;22.91;54.68;96161.63;5049251;28;20074;-62
2022/12/18 11:15:19;;;;;;;6.80;4.97;;;;;;;22.92;54.74;96171.28;5066264;28;20098;-62
2022/12/18 11:17:45;;;;;;;6.68;4.68;;;;;;;23.00;53.88;96166.97;5014692;28;20060;-62
2022/12/18 11:20:38;;;;;;;7.47;4.55;;;;;;;22.85;55.74;96181.09;5024813;28;20045;-62
2022/12/18 11:23:05;;;;;;;7.07;5.13;;;;;;;22.76;56.57;96187.44;5034320;28;20074;-62
2022/12/18 11:25:31;;;;;;;7.22;4.47;;;;;;;22.71;56.21;96166.34;5067154;28;20051;-62
2022/12/18 11:28:04;;;;;;;6.65;4.57;;;;;;;22.83;54.96;96183.56;5066805;28;20040;-62
2022/12/18 11:30:34;;;;;;;5.78;4.40;;;;;;;22.75;54.36;96183.22;5050466;28;20197;-61
2022/12/18 11:33:02;;;;;;;8.05;4.65;;;;;;;22.60;54.46;96160.75;5048795;28;20245;-62
2022/12/18 11:35:46;;;;;;;6.78;4.60;;;;;;;22.67;55.39;96181.38;5048625;28;20496;-62
2022/12/18 11:38:25;;;;;;;5.70;4.07;;;;;;;22.41;54.92;96137.75;5047731;28;20048;-62
2022/12/18 11:40:57;;;;;;;8.30;4.85;;;;;;;22.66;54.57;96179.88;5048137;28;20040;-62
2022/12/18 11:43:47;;;;;;;5.82;4.60;;;;;;;22.48;56.66;96175.47;5067193;28;20048;-62
2022/12/18 11:46:24;;;;;;;6.63;4.65;;;;;;;22.42;56.85;96171.16;5050418;28;20818;-62
2022/12/18 11:48:54;;;;;;;6.60;4.80;;;;;;;22.46;56.25;96177.16;5031222;28;20145;-62
2022/12/18 11:51:29;;;;;;;6.88;4.82;;;;;;;22.45;55.76;96191.97;5048445;28;20048;-62
2022/12/18 11:53:54;;;;;;;5.90;4.30;;;;;;;22.55;54.83;96185.19;5030579;28;20052;-62
2022/12/18 11:56:36;;;;;;;6.47;4.50;;;;;;;22.54;55.56;96189.13;5047414;28;20060;-63
2022/12/18 11:59:34;;;;;;;7.15;4.75;;;;;;;22.45;55.69;96175.63;5028152;28;20045;-62
2022/12/18 12:02:29;;;;;;;6.38;4.60;;;;;;;22.40;55.81;96162.72;5046324;28;20125;-62
2022/12/18 12:05:31;;;;;;;6.55;4.68;;;;;;;22.44;56.04;96169.44;5030601;28;23177;-62
2022/12/18 12:08:18;;;;;;;6.10;4.63;;;;;;;22.41;55.99;96207.75;5047465;28;20038;-62